createdAt,value
2017-04-28T15:18:33.200Z,17.8
2017-04-28T15:20:57.101Z,17.5
2017-04-28T15:23:20.987Z,17.09
2017-04-28T15:25:44.856Z,17.38
2017-04-28T15:28:00.338Z,17.86
2017-04-28T15:30:24.212Z,17.78
2017-04-28T15:32:48.095Z,17.87
2017-04-28T15:35:11.870Z,17.38
2017-04-28T15:37:35.643Z,16.86
2017-04-28T15:39:59.414Z,16.66
2017-04-28T15:42:23.190Z,16.87
2017-04-28T15:44:46.934Z,16.87
2017-04-28T15:46:48.178Z,17.07
2017-04-28T15:49:11.992Z,17.38
2017-04-28T15:51:35.759Z,17.41
2017-04-28T15:53:59.636Z,17.47
2017-04-28T15:56:23.431Z,17.07
2017-04-28T15:58:47.284Z,17.12
2017-04-28T16:00:57.060Z,16.97
2017-04-28T16:03:20.908Z,16.84
2017-04-28T16:05:36.294Z,16.69
2017-04-28T16:07:37.551Z,16.51
2017-04-28T16:10:01.310Z,16.08
2017-04-28T16:12:16.599Z,16.13
2017-04-28T16:14:40.363Z,16.24
2017-04-28T16:16:55.637Z,16.18
2017-04-28T16:19:19.405Z,16.1
2017-04-28T16:21:43.082Z,16.13
2017-04-28T16:24:06.758Z,16.02
2017-04-28T16:26:23.068Z,16.08
2017-04-28T16:28:46.726Z,16.26
2017-04-28T16:31:10.396Z,16.39
2017-04-28T16:33:34.072Z,16.69
2017-04-28T16:35:57.846Z,16.46
2017-04-28T16:38:21.619Z,16.57
2017-04-28T16:40:45.394Z,16.46
2017-04-28T16:42:55.157Z,16.29
2017-04-28T16:45:18.914Z,16.31
2017-04-28T16:47:42.591Z,16.32
2017-04-28T16:50:06.363Z,16.39
2017-04-28T16:52:30.033Z,16.43
2017-04-28T16:54:45.309Z,16.5
2017-04-28T16:57:00.584Z,16.61
2017-04-28T16:59:10.341Z,16.43
2017-04-28T17:01:11.557Z,16.55
2017-04-28T17:03:35.349Z,16.54
2017-04-28T17:05:45.602Z,16.44
2017-04-28T17:08:09.389Z,16
2017-04-28T17:10:25.688Z,15.92
2017-04-28T17:12:49.459Z,15.72
2017-04-28T17:15:13.252Z,15.65
2017-04-28T17:17:22.957Z,15.51
2017-04-28T17:19:39.276Z,15.5
2017-04-28T17:21:56.610Z,15.43
2017-04-28T17:24:13.925Z,15.22
2017-04-28T17:26:38.618Z,14.82
2017-04-28T17:29:04.341Z,14.68
2017-04-28T17:31:19.525Z,14.71
2017-04-28T17:33:43.116Z,14.87
2017-04-28T17:35:18.899Z,14.7
2017-04-28T17:37:34.106Z,14.58
2017-04-28T17:39:58.661Z,14.05
2017-04-28T17:42:13.813Z,14.2
2017-04-28T17:44:23.517Z,14.28
2017-04-28T17:46:47.093Z,14.37
2017-04-28T17:49:03.280Z,14.4
2017-04-28T17:51:19.376Z,14.33
2017-04-28T17:53:42.873Z,14.23
2017-04-28T17:56:06.411Z,14.01
2017-04-28T17:58:21.702Z,14.23
2017-04-28T18:00:45.290Z,14.23
2017-04-28T18:03:10.328Z,14.37
2017-04-28T18:05:35.062Z,14.28
2017-04-28T18:07:59.308Z,14.13
2017-04-28T18:10:22.817Z,14.34
2017-04-28T18:12:46.376Z,14.45
2017-04-28T18:14:56.621Z,14.01
2017-04-28T18:17:21.227Z,14.03
2017-04-28T18:19:44.806Z,13.85
2017-04-28T18:22:08.381Z,13.94
2017-04-28T18:24:09.610Z,14.04
2017-04-28T18:26:33.133Z,13.89
2017-04-28T18:28:56.670Z,14.03
2017-04-28T18:31:20.230Z,13.97
2017-04-28T18:33:44.824Z,13.98
2017-04-28T18:35:59.999Z,14.13
2017-04-28T18:38:23.579Z,14.41
2017-04-28T18:40:47.135Z,14.44
2017-04-28T18:43:10.717Z,14.55
2017-04-28T18:45:34.477Z,14.55
2017-04-28T18:47:58.076Z,14.53
2017-04-28T18:50:22.706Z,14.48
2017-04-28T18:52:34.825Z,14.58
2017-04-28T18:55:06.832Z,14.48
2017-04-28T18:57:36.856Z,14.44
2017-04-28T19:00:06.180Z,14.22
2017-04-28T19:02:29.808Z,14.34
2017-04-28T19:04:56.322Z,14.2
2017-04-28T19:07:27.832Z,14.22
2017-04-28T19:10:00.842Z,14.22
2017-04-28T19:12:25.453Z,14.26
2017-04-28T19:14:50.629Z,14.23
2017-04-28T19:17:16.544Z,14.05
2017-04-28T19:19:40.144Z,13.86
2017-04-28T19:22:10.270Z,13.87
2017-04-28T19:24:34.823Z,13.67
2017-04-28T19:26:59.126Z,14.04
2017-04-28T19:29:24.836Z,13.98
2017-04-28T19:31:48.377Z,14.01
2017-04-28T19:34:11.962Z,14
2017-04-28T19:36:35.527Z,13.93
2017-04-28T19:38:59.001Z,13.91
2017-04-28T19:41:22.566Z,14
2017-04-28T19:43:46.140Z,13.65
2017-04-28T19:45:47.487Z,13.65
2017-04-28T19:48:02.654Z,13.75
2017-04-28T19:50:26.329Z,13.64
2017-04-28T19:52:49.905Z,13.52
2017-04-28T19:55:13.373Z,13.39
2017-04-28T19:57:36.835Z,13.16
2017-04-28T20:00:01.329Z,13.16
2017-04-28T20:02:24.970Z,13.12
2017-04-28T20:04:48.368Z,13.01
2017-04-28T20:07:11.853Z,12.87
2017-04-28T20:08:48.779Z,13.03
2017-04-28T20:11:12.169Z,12.94
2017-04-28T20:13:35.640Z,12.66
2017-04-28T20:15:59.208Z,12.9
2017-04-28T20:18:22.676Z,12.99
2017-04-28T20:20:46.142Z,13.16
2017-04-28T20:23:10.642Z,13.02
2017-04-28T20:25:52.336Z,13.28
2017-04-28T20:28:22.565Z,13.23
2017-04-28T20:32:22.772Z,12.87
2017-04-28T20:35:01.122Z,13.02
2017-04-28T20:36:36.838Z,12.86
2017-04-28T20:39:07.794Z,12.69
